Wetterdaten: Woche 10.09.12 - 16.09.12 (KW37)
Datum Zeit Temperatur Luftfeuchte Luftdruck Niederschlag Windrichtung Sonnenschein Solar Wind
10.09.2012 00:00 14,1 C 94 % 1015,2 hPa 0,0 l/m N 0,00 h 0 W/m 0,0 km/h (0 Bft)
10.09.2012 01:00 13,6 C 94 % 1015,2 hPa 0,0 l/m N 0,00 h 0 W/m 0,0 km/h (0 Bft)
10.09.2012 02:00 13,1 C 94 % 1015,3 hPa 0,0 l/m N 0,00 h 0 W/m 0,0 km/h (0 Bft)
10.09.2012 03:00 12,7 C 94 % 1015,4 hPa 0,0 l/m N 0,00 h 0 W/m 0,0 km/h (0 Bft)
10.09.2012 04:00 12,3 C 95 % 1015,6 hPa 0,0 l/m N 0,00 h 0 W/m 0,0 km/h (0 Bft)
10.09.2012 05:00 12,0 C 95 % 1015,7 hPa 0,0 l/m O-NO 0,00 h 0 W/m 0,8 km/h (0 Bft)
10.09.2012 06:00 11,7 C 95 % 1015,8 hPa 0,0 l/m N 0,00 h 5 W/m 0,0 km/h (0 Bft)
10.09.2012 07:00 11,5 C 96 % 1016,0 hPa 0,0 l/m N 0,00 h 21 W/m 0,3 km/h (0 Bft)
10.09.2012 08:00 13,4 C 97 % 1016,3 hPa 0,0 l/m O-NO 0,50 h 154 W/m 2,4 km/h (1 Bft)
10.09.2012 09:00 17,0 C 87 % 1016,3 hPa 0,0 l/m O 1,00 h 315 W/m 5,6 km/h (1 Bft)
10.09.2012 10:00 19,6 C 75 % 1016,5 hPa 0,0 l/m S 0,92 h 452 W/m 11,0 km/h (2 Bft)
10.09.2012 11:00 21,5 C 70 % 1016,4 hPa 0,0 l/m S-SW 1,00 h 596 W/m 10,9 km/h (2 Bft)
10.09.2012 12:00 23,4 C 68 % 1015,9 hPa 0,0 l/m SW 1,00 h 681 W/m 9,7 km/h (2 Bft)
10.09.2012 13:00 25,0 C 61 % 1015,4 hPa 0,0 l/m S-SW 1,00 h 711 W/m 9,4 km/h (2 Bft)
10.09.2012 14:00 26,2 C 58 % 1015,1 hPa 0,0 l/m S-SW 1,00 h 670 W/m 10,8 km/h (2 Bft)
10.09.2012 15:00 26,5 C 52 % 1014,7 hPa 0,0 l/m S-SO 1,00 h 604 W/m 8,0 km/h (2 Bft)
10.09.2012 16:00 26,2 C 50 % 1014,2 hPa 0,0 l/m S-SW 1,00 h 482 W/m 7,9 km/h (2 Bft)
10.09.2012 17:00 25,2 C 54 % 1014,1 hPa 0,0 l/m S-SW 0,67 h 244 W/m 7,6 km/h (2 Bft)
10.09.2012 18:00 23,3 C 65 % 1014,2 hPa 0,0 l/m SW 0,83 h 151 W/m 5,7 km/h (1 Bft)
10.09.2012 19:00 21,2 C 74 % 1014,4 hPa 0,0 l/m N 0,58 h 30 W/m 1,3 km/h (1 Bft)
10.09.2012 20:00 19,0 C 82 % 1014,8 hPa 0,0 l/m N 0,00 h 0 W/m 0,1 km/h (0 Bft)
10.09.2012 21:00 17,7 C 86 % 1014,7 hPa 0,0 l/m O-SO 0,00 h 0 W/m 2,4 km/h (1 Bft)
10.09.2012 22:00 17,1 C 86 % 1015,5 hPa 0,0 l/m N 0,00 h 0 W/m 0,0 km/h (0 Bft)
10.09.2012 23:00 16,1 C 87 % 1015,4 hPa 0,0 l/m N 0,00 h 0 W/m 0,7 km/h (0 Bft)
11.09.2012 00:00 15,2 C 87 % 1015,1 hPa 0,0 l/m N 0,00 h 0 W/m 0,0 km/h (0 Bft)
11.09.2012 01:00 14,3 C 88 % 1014,8 hPa 0,0 l/m N 0,00 h 0 W/m 0,1 km/h (0 Bft)
11.09.2012 02:00 13,6 C 90 % 1014,4 hPa 0,0 l/m N 0,00 h 0 W/m 0,0 km/h (0 Bft)
11.09.2012 03:00 12,9 C 91 % 1014,3 hPa 0,0 l/m N 0,00 h 0 W/m 0,0 km/h (0 Bft)
11.09.2012 04:00 12,4 C 92 % 1014,2 hPa 0,0 l/m N 0,00 h 0 W/m 0,0 km/h (0 Bft)
11.09.2012 05:00 11,8 C 93 % 1014,2 hPa 0,0 l/m N 0,00 h 0 W/m 0,0 km/h (0 Bft)
11.09.2012 06:00 11,6 C 94 % 1014,2 hPa 0,0 l/m N 0,00 h 5 W/m 0,0 km/h (0 Bft)
11.09.2012 07:00 12,0 C 95 % 1014,4 hPa 0,0 l/m N 0,08 h 32 W/m 0,0 km/h (0 Bft)
11.09.2012 08:00 13,3 C 94 % 1014,5 hPa 0,0 l/m N 0,08 h 99 W/m 0,0 km/h (0 Bft)
11.09.2012 09:00 16,6 C 87 % 1014,5 hPa 0,0 l/m O-SO 0,75 h 286 W/m 4,0 km/h (1 Bft)
11.09.2012 10:00 19,4 C 79 % 1014,4 hPa 0,0 l/m S-SO 0,58 h 351 W/m 8,6 km/h (2 Bft)
11.09.2012 11:00 21,4 C 75 % 1014,0 hPa 0,0 l/m S-SO 0,75 h 484 W/m 9,9 km/h (2 Bft)
11.09.2012 12:00 23,3 C 68 % 1013,4 hPa 0,0 l/m W-SW 0,92 h 619 W/m 14,1 km/h (3 Bft)
11.09.2012 13:00 24,5 C 57 % 1012,8 hPa 0,0 l/m W-SW 1,00 h 683 W/m 18,9 km/h (3 Bft)
11.09.2012 14:00 24,9 C 54 % 1012,0 hPa 0,0 l/m W-SW 1,00 h 651 W/m 21,3 km/h (4 Bft)
11.09.2012 15:00 25,0 C 55 % 1011,6 hPa 0,0 l/m SW 0,67 h 463 W/m 20,1 km/h (4 Bft)
11.09.2012 16:00 21,4 C 61 % 1012,3 hPa 0,0 l/m W-NW 0,08 h 163 W/m 24,9 km/h (4 Bft)
11.09.2012 17:00 18,8 C 70 % 1011,8 hPa 0,0 l/m SW 0,00 h 36 W/m 9,8 km/h (2 Bft)
11.09.2012 18:00 18,7 C 73 % 1012,2 hPa 0,0 l/m W-SW 0,00 h 29 W/m 5,1 km/h (1 Bft)
11.09.2012 19:00 18,5 C 73 % 1012,7 hPa 0,0 l/m W-SW 0,00 h 5 W/m 11,7 km/h (2 Bft)
11.09.2012 20:00 18,4 C 75 % 1013,0 hPa 0,0 l/m W-SW 0,00 h 0 W/m 10,7 km/h (2 Bft)
11.09.2012 21:00 17,3 C 83 % 1012,9 hPa 0,0 l/m SW 0,00 h 0 W/m 8,0 km/h (2 Bft)
11.09.2012 22:00 16,8 C 87 % 1012,6 hPa 0,0 l/m SW 0,00 h 0 W/m 11,3 km/h (2 Bft)
11.09.2012 23:00 16,9 C 86 % 1012,4 hPa 0,2 l/m W-SW 0,00 h 0 W/m 17,4 km/h (3 Bft)
12.09.2012 00:00 16,0 C 90 % 1012,1 hPa 0,2 l/m SW 0,00 h 0 W/m 12,5 km/h (3 Bft)
12.09.2012 01:00 15,6 C 92 % 1011,9 hPa 0,0 l/m SW 0,00 h 0 W/m 10,2 km/h (2 Bft)
12.09.2012 02:00 15,3 C 94 % 1011,4 hPa 1,2 l/m SW 0,00 h 0 W/m 18,0 km/h (3 Bft)
12.09.2012 03:00 15,0 C 96 % 1010,8 hPa 1,6 l/m SW 0,00 h 0 W/m 16,5 km/h (3 Bft)
12.09.2012 04:00 14,9 C 96 % 1010,3 hPa 0,0 l/m SW 0,00 h 0 W/m 17,6 km/h (3 Bft)
12.09.2012 05:00 14,5 C 97 % 1010,1 hPa 0,8 l/m SW 0,00 h 0 W/m 14,1 km/h (3 Bft)
12.09.2012 06:00 13,4 C 96 % 1010,3 hPa 2,8 l/m N-NW 0,00 h 0 W/m 16,4 km/h (3 Bft)
12.09.2012 07:00 12,3 C 96 % 1011,1 hPa 0,4 l/m NW 0,00 h 11 W/m 10,9 km/h (2 Bft)
12.09.2012 08:00 11,6 C 95 % 1011,6 hPa 0,0 l/m NW 0,00 h 16 W/m 9,1 km/h (2 Bft)
12.09.2012 09:00 11,2 C 94 % 1012,3 hPa 0,0 l/m W 0,00 h 46 W/m 10,5 km/h (2 Bft)
12.09.2012 10:00 10,8 C 90 % 1013,1 hPa 0,0 l/m W-NW 0,00 h 84 W/m 6,7 km/h (2 Bft)
12.09.2012 11:00 11,2 C 88 % 1013,3 hPa 0,0 l/m W-NW 0,00 h 128 W/m 6,8 km/h (2 Bft)
12.09.2012 12:00 11,5 C 84 % 1013,7 hPa 0,0 l/m W 0,00 h 171 W/m 15,4 km/h (3 Bft)
12.09.2012 13:00 11,0 C 83 % 1013,6 hPa 0,0 l/m W 0,00 h 137 W/m 20,1 km/h (4 Bft)
12.09.2012 14:00 10,9 C 79 % 1012,9 hPa 0,0 l/m W-SW 0,00 h 156 W/m 19,0 km/h (3 Bft)
12.09.2012 15:00 11,0 C 79 % 1012,5 hPa 0,0 l/m W-SW 0,00 h 120 W/m 21,0 km/h (4 Bft)
12.09.2012 16:00 10,7 C 82 % 1012,6 hPa 0,0 l/m W-SW 0,00 h 88 W/m 18,5 km/h (3 Bft)
12.09.2012 17:00 10,2 C 85 % 1012,9 hPa 0,8 l/m W 0,00 h 39 W/m 17,1 km/h (3 Bft)
12.09.2012 18:00 9,2 C 91 % 1013,3 hPa 1,2 l/m W 0,00 h 22 W/m 7,8 km/h (2 Bft)
12.09.2012 19:00 8,8 C 92 % 1013,1 hPa 0,2 l/m W-SW 0,00 h 6 W/m 6,1 km/h (2 Bft)
12.09.2012 20:00 8,5 C 94 % 1013,4 hPa 0,2 l/m W 0,00 h 0 W/m 9,4 km/h (2 Bft)
12.09.2012 21:00 8,4 C 95 % 1013,7 hPa 0,6 l/m W-NW 0,00 h 0 W/m 4,3 km/h (1 Bft)
12.09.2012 22:00 8,1 C 95 % 1013,5 hPa 0,0 l/m N 0,00 h 0 W/m 2,3 km/h (1 Bft)
12.09.2012 23:00 8,1 C 95 % 1013,5 hPa 0,0 l/m N 0,00 h 0 W/m 2,5 km/h (1 Bft)
13.09.2012 00:00 8,3 C 95 % 1013,3 hPa 0,4 l/m W-NW 0,00 h 0 W/m 2,7 km/h (1 Bft)
13.09.2012 01:00 8,1 C 96 % 1013,2 hPa 0,6 l/m W-NW 0,00 h 0 W/m 9,2 km/h (2 Bft)
13.09.2012 02:00 7,7 C 95 % 1013,2 hPa 0,4 l/m N 0,00 h 0 W/m 3,7 km/h (1 Bft)
13.09.2012 03:00 7,7 C 95 % 1013,3 hPa 0,4 l/m NW 0,00 h 0 W/m 6,1 km/h (2 Bft)
13.09.2012 04:00 7,6 C 95 % 1013,3 hPa 0,0 l/m N-NW 0,00 h 0 W/m 4,3 km/h (1 Bft)
13.09.2012 05:00 7,5 C 96 % 1013,6 hPa 0,0 l/m NW 0,00 h 0 W/m 3,2 km/h (1 Bft)
13.09.2012 06:00 7,0 C 95 % 1013,7 hPa 0,0 l/m N 0,00 h 0 W/m 0,3 km/h (0 Bft)
13.09.2012 07:00 6,4 C 95 % 1014,1 hPa 0,0 l/m N 0,00 h 21 W/m 0,4 km/h (0 Bft)
13.09.2012 08:00 6,8 C 96 % 1014,4 hPa 0,0 l/m N 0,42 h 142 W/m 0,0 km/h (0 Bft)
13.09.2012 09:00 8,9 C 93 % 1014,4 hPa 0,0 l/m NW 0,92 h 326 W/m 4,3 km/h (1 Bft)
13.09.2012 10:00 10,3 C 85 % 1014,9 hPa 0,0 l/m O-SO 0,75 h 430 W/m 4,7 km/h (1 Bft)
13.09.2012 11:00 11,3 C 76 % 1015,3 hPa 0,0 l/m O-SO 0,08 h 232 W/m 5,5 km/h (1 Bft)
13.09.2012 12:00 10,9 C 75 % 1015,6 hPa 0,0 l/m N 0,08 h 172 W/m 5,6 km/h (1 Bft)
13.09.2012 13:00 12,7 C 63 % 1015,7 hPa 0,0 l/m NO 0,50 h 449 W/m 9,5 km/h (2 Bft)
13.09.2012 14:00 12,5 C 62 % 1015,8 hPa 0,0 l/m NO 0,00 h 191 W/m 8,6 km/h (2 Bft)
13.09.2012 15:00 13,1 C 59 % 1015,8 hPa 0,0 l/m O 0,67 h 544 W/m 10,2 km/h (2 Bft)
13.09.2012 16:00 13,9 C 56 % 1015,8 hPa 0,0 l/m O 0,75 h 438 W/m 10,1 km/h (2 Bft)
13.09.2012 17:00 13,2 C 56 % 1016,1 hPa 0,0 l/m NO 0,58 h 239 W/m 8,6 km/h (2 Bft)
13.09.2012 18:00 12,6 C 60 % 1016,5 hPa 0,0 l/m N 0,75 h 146 W/m 4,9 km/h (1 Bft)
13.09.2012 19:00 9,9 C 78 % 1016,8 hPa 0,0 l/m N 0,00 h 14 W/m 1,3 km/h (1 Bft)
13.09.2012 20:00 8,1 C 85 % 1017,6 hPa 0,0 l/m N 0,00 h 0 W/m 1,2 km/h (1 Bft)
13.09.2012 21:00 7,3 C 87 % 1018,2 hPa 0,0 l/m N 0,00 h 0 W/m 0,1 km/h (0 Bft)
13.09.2012 22:00 6,6 C 89 % 1018,5 hPa 0,0 l/m N 0,00 h 0 W/m 0,0 km/h (0 Bft)
13.09.2012 23:00 5,9 C 90 % 1018,6 hPa 0,0 l/m N 0,00 h 0 W/m 0,0 km/h (0 Bft)
14.09.2012 00:00 5,4 C 91 % 1018,9 hPa 0,0 l/m N 0,00 h 0 W/m 0,1 km/h (0 Bft)
14.09.2012 01:00 4,9 C 92 % 1018,7 hPa 0,0 l/m N 0,00 h 0 W/m 0,0 km/h (0 Bft)
14.09.2012 02:00 4,4 C 93 % 1018,5 hPa 0,0 l/m N 0,00 h 0 W/m 0,3 km/h (0 Bft)
14.09.2012 03:00 3,9 C 93 % 1018,3 hPa 0,0 l/m N 0,00 h 0 W/m 0,0 km/h (0 Bft)
14.09.2012 04:00 3,4 C 93 % 1018,2 hPa 0,0 l/m N 0,00 h 0 W/m 0,0 km/h (0 Bft)
14.09.2012 05:00 3,0 C 93 % 1018,2 hPa 0,0 l/m N 0,00 h 0 W/m 0,1 km/h (0 Bft)
14.09.2012 06:00 2,7 C 94 % 1018,3 hPa 0,0 l/m N 0,00 h 5 W/m 0,4 km/h (0 Bft)
14.09.2012 07:00 2,7 C 95 % 1018,7 hPa 0,0 l/m N 0,00 h 35 W/m 0,0 km/h (0 Bft)
14.09.2012 08:00 4,6 C 96 % 1018,7 hPa 0,0 l/m N 0,75 h 171 W/m 3,9 km/h (1 Bft)
14.09.2012 09:00 7,5 C 94 % 1018,5 hPa 0,0 l/m W-SW 0,58 h 262 W/m 5,4 km/h (1 Bft)
14.09.2012 10:00 10,0 C 88 % 1018,2 hPa 0,0 l/m S-SW 0,00 h 232 W/m 9,9 km/h (2 Bft)
14.09.2012 11:00 11,6 C 79 % 1017,8 hPa 0,0 l/m S-SO 0,67 h 551 W/m 10,4 km/h (2 Bft)
14.09.2012 12:00 14,1 C 66 % 1017,3 hPa 0,0 l/m S 1,00 h 712 W/m 11,8 km/h (2 Bft)
14.09.2012 13:00 15,1 C 61 % 1016,7 hPa 0,0 l/m W-SW 0,92 h 718 W/m 14,4 km/h (3 Bft)
14.09.2012 14:00 16,3 C 57 % 1016,2 hPa 0,0 l/m W-SW 1,00 h 689 W/m 14,1 km/h (3 Bft)
14.09.2012 15:00 16,9 C 50 % 1015,2 hPa 0,0 l/m SW 1,00 h 624 W/m 15,8 km/h (3 Bft)
14.09.2012 16:00 16,9 C 48 % 1014,3 hPa 0,0 l/m W 1,00 h 504 W/m 16,0 km/h (3 Bft)
14.09.2012 17:00 16,4 C 48 % 1013,7 hPa 0,0 l/m W-SW 1,00 h 350 W/m 14,0 km/h (3 Bft)
14.09.2012 18:00 15,1 C 58 % 1013,9 hPa 0,0 l/m W-SW 0,58 h 120 W/m 8,3 km/h (2 Bft)
14.09.2012 19:00 12,7 C 70 % 1013,9 hPa 0,0 l/m W-SW 0,08 h 12 W/m 4,5 km/h (1 Bft)
14.09.2012 20:00 10,7 C 80 % 1014,5 hPa 0,0 l/m N 0,00 h 0 W/m 0,8 km/h (0 Bft)
14.09.2012 21:00 10,3 C 81 % 1014,7 hPa 0,0 l/m SW 0,00 h 0 W/m 4,7 km/h (1 Bft)
14.09.2012 22:00 10,1 C 81 % 1014,9 hPa 0,0 l/m SW 0,00 h 0 W/m 4,8 km/h (1 Bft)
14.09.2012 23:00 9,9 C 83 % 1015,1 hPa 0,0 l/m SW 0,00 h 0 W/m 5,5 km/h (1 Bft)
15.09.2012 00:00 9,0 C 87 % 1015,3 hPa 0,0 l/m N 0,00 h 0 W/m 0,9 km/h (0 Bft)
15.09.2012 01:00 8,0 C 91 % 1015,6 hPa 0,0 l/m N 0,00 h 0 W/m 0,9 km/h (0 Bft)
15.09.2012 02:00 8,3 C 92 % 1015,6 hPa 0,0 l/m SW 0,00 h 0 W/m 5,0 km/h (1 Bft)
15.09.2012 03:00 10,1 C 90 % 1015,5 hPa 0,0 l/m W-SW 0,00 h 0 W/m 9,8 km/h (2 Bft)
15.09.2012 04:00 10,6 C 86 % 1015,6 hPa 0,0 l/m N 0,00 h 0 W/m 1,1 km/h (0 Bft)
15.09.2012 05:00 9,9 C 89 % 1015,7 hPa 0,0 l/m N 0,00 h 0 W/m 0,1 km/h (0 Bft)
15.09.2012 06:00 10,0 C 91 % 1015,8 hPa 0,0 l/m N 0,00 h 0 W/m 2,0 km/h (1 Bft)
15.09.2012 07:00 10,3 C 92 % 1016,2 hPa 0,0 l/m SW 0,00 h 25 W/m 2,4 km/h (1 Bft)
15.09.2012 08:00 11,5 C 90 % 1016,6 hPa 0,0 l/m W-SW 0,00 h 64 W/m 3,1 km/h (1 Bft)
15.09.2012 09:00 12,1 C 91 % 1017,0 hPa 0,0 l/m S-SW 0,00 h 135 W/m 8,3 km/h (2 Bft)
15.09.2012 10:00 13,6 C 86 % 1017,3 hPa 0,0 l/m W-SW 0,25 h 237 W/m 7,1 km/h (2 Bft)
15.09.2012 11:00 14,3 C 82 % 1017,4 hPa 0,0 l/m W-SW 0,00 h 104 W/m 7,6 km/h (2 Bft)
15.09.2012 12:00 14,5 C 83 % 1017,4 hPa 0,0 l/m S 0,00 h 118 W/m 6,8 km/h (2 Bft)
15.09.2012 13:00 14,6 C 81 % 1017,3 hPa 0,0 l/m N-NW 0,00 h 138 W/m 7,5 km/h (2 Bft)
15.09.2012 14:00 14,0 C 81 % 1017,3 hPa 0,0 l/m N 0,00 h 57 W/m 7,9 km/h (2 Bft)
15.09.2012 15:00 14,5 C 80 % 1016,9 hPa 0,0 l/m N 0,25 h 218 W/m 4,7 km/h (1 Bft)
15.09.2012 16:00 16,4 C 67 % 1016,5 hPa 0,0 l/m N-NO 1,00 h 485 W/m 12,4 km/h (3 Bft)
15.09.2012 17:00 16,3 C 71 % 1016,6 hPa 0,0 l/m N-NO 0,67 h 266 W/m 11,2 km/h (2 Bft)
15.09.2012 18:00 15,6 C 72 % 1016,7 hPa 0,0 l/m O-NO 0,67 h 121 W/m 8,4 km/h (2 Bft)
15.09.2012 19:00 13,7 C 81 % 1016,9 hPa 0,0 l/m O-NO 0,00 h 11 W/m 1,6 km/h (1 Bft)
15.09.2012 20:00 12,2 C 84 % 1017,4 hPa 0,0 l/m N 0,00 h 0 W/m 0,3 km/h (0 Bft)
15.09.2012 21:00 10,8 C 87 % 1017,6 hPa 0,0 l/m N 0,00 h 0 W/m 0,7 km/h (0 Bft)
15.09.2012 22:00 9,9 C 90 % 1017,6 hPa 0,0 l/m N 0,00 h 0 W/m 1,2 km/h (1 Bft)
15.09.2012 23:00 9,3 C 91 % 1017,7 hPa 0,0 l/m N 0,00 h 0 W/m 1,5 km/h (1 Bft)
16.09.2012 00:00 9,0 C 93 % 1017,3 hPa 0,0 l/m N 0,00 h 0 W/m 2,4 km/h (1 Bft)
16.09.2012 01:00 8,7 C 94 % 1017,1 hPa 0,0 l/m N 0,00 h 0 W/m 3,6 km/h (1 Bft)
16.09.2012 02:00 8,4 C 94 % 1016,9 hPa 0,0 l/m NO 0,00 h 0 W/m 3,2 km/h (1 Bft)
16.09.2012 03:00 8,2 C 95 % 1016,9 hPa 0,0 l/m N-NW 0,00 h 0 W/m 5,6 km/h (1 Bft)
16.09.2012 04:00 7,9 C 96 % 1016,7 hPa 0,0 l/m N-NW 0,00 h 0 W/m 6,7 km/h (2 Bft)
16.09.2012 05:00 7,5 C 96 % 1016,6 hPa 0,0 l/m N-NW 0,00 h 0 W/m 5,3 km/h (1 Bft)
16.09.2012 06:00 7,2 C 96 % 1016,7 hPa 0,0 l/m N 0,00 h 0 W/m 4,3 km/h (1 Bft)
16.09.2012 07:00 7,2 C 96 % 1016,7 hPa 0,0 l/m N 0,00 h 16 W/m 1,9 km/h (1 Bft)
16.09.2012 08:00 7,6 C 97 % 1016,8 hPa 0,0 l/m N-NW 0,00 h 62 W/m 4,4 km/h (1 Bft)
16.09.2012 09:00 8,2 C 98 % 1017,0 hPa 0,0 l/m N-NW 0,00 h 90 W/m 4,3 km/h (1 Bft)
16.09.2012 10:00 9,6 C 98 % 1017,1 hPa 0,0 l/m N-NW 0,00 h 186 W/m 3,3 km/h (1 Bft)
16.09.2012 11:00 11,5 C 94 % 1016,8 hPa 0,0 l/m N-NW 0,50 h 456 W/m 4,3 km/h (1 Bft)
16.09.2012 12:00 14,3 C 83 % 1016,1 hPa 0,0 l/m N-NO 1,00 h 684 W/m 6,3 km/h (2 Bft)
16.09.2012 13:00 16,8 C 73 % 1015,5 hPa 0,0 l/m NO 1,00 h 705 W/m 8,4 km/h (2 Bft)
16.09.2012 14:00 18,5 C 69 % 1014,7 hPa 0,0 l/m O-SO 1,00 h 676 W/m 9,3 km/h (2 Bft)
16.09.2012 15:00 19,8 C 61 % 1014,1 hPa 0,0 l/m O-NO 1,00 h 599 W/m 11,0 km/h (2 Bft)
16.09.2012 16:00 19,8 C 61 % 1013,6 hPa 0,0 l/m O 1,00 h 474 W/m 10,9 km/h (2 Bft)
16.09.2012 17:00 19,5 C 63 % 1013,3 hPa 0,0 l/m O 1,00 h 314 W/m 9,4 km/h (2 Bft)
16.09.2012 18:00 18,8 C 65 % 1013,0 hPa 0,0 l/m O-NO 0,67 h 115 W/m 7,2 km/h (2 Bft)
16.09.2012 19:00 15,3 C 82 % 1012,9 hPa 0,0 l/m N 0,08 h 12 W/m 1,5 km/h (1 Bft)
16.09.2012 20:00 13,4 C 89 % 1013,3 hPa 0,0 l/m O-NO 0,00 h 0 W/m 2,0 km/h (1 Bft)
16.09.2012 21:00 12,1 C 92 % 1013,4 hPa 0,0 l/m N 0,00 h 0 W/m 0,0 km/h (0 Bft)
16.09.2012 22:00 11,0 C 95 % 1013,3 hPa 0,0 l/m N 0,00 h 0 W/m 0,0 km/h (0 Bft)
16.09.2012 23:00 10,3 C 95 % 1013,3 hPa 0,0 l/m N 0,00 h 0 W/m 0,0 km/h (0 Bft)
Min-Datum _ 14.09.12 14.09.12 12.09.12 - - - - 10.09.12
_ Min-Zeit 07:15 16:50 05:45 - - - - 00:00
Minimum _ 2,4 C 45 % 1009,8 hPa - - - - 0,0 km/h (0 Bft)
Max-Datum _ 10.09.12 16.09.12 14.09.12 12.09.12 - 10.09.12 13.09.12 11.09.12
_ Max-Zeit 15:45 10:10 00:10 06:15 - 08:30 13:35 16:30
Maximum _ 26,8 C 99 % 1019,0 hPa 2,8 l/m - 0,08 h 925 W/m 35,4 km/h
W-NW (5 Bft)
Durchschnitt _ 12,9 C 83 % 1015,0 hPa #12,0 l/m W-SW #40:35 h 263 W/m 6,3 km/h (2 Bft)